Latest Weather Observations for Moss Vale

IDN60801

Issued at 2:33 pm EST Saturday 1 October 2016 (issued every 30 minutes, with the page automatically refreshed every 10 minutes)

About weather observations | Map of weather stations | Latest weather observations for NSW | Other Formats
Station Details ID: 068239 Name: MOSS VALE AWS Lat: -34.53 Lon: 150.42 Height: 678.4 m
Data from the previous 72 hours. | See also: Recent months at Moss Vale
Date/Time
EST
Temp
°C
App
Temp
°C
Dew
Point
°C
Rel
Hum
%
Delta-T
°C
Wind Press
QNH
hPa
Press
MSL
hPa
Rain since
9am
mm
Dir  Spd
km/h
Gust
km/h
Spd
kts
Gust
kts
01/02:30pm 13.0 4.6 5.7 61 3.6 NW 39 61 21 33 1005.5 1004.1 0.2
01/02:28pm 12.7 4.1 4.9 59 3.8 NW 39 61 21 33 1005.4 1004.0 0.2
01/02:20pm 12.7 2.9 5.1 60 3.7 NW 46 67 25 36 1005.5 1004.1 0.2
01/02:17pm 12.6 2.7 4.6 58 3.8 NW 46 67 25 36 1005.3 1003.9 0.2
01/02:10pm 13.1 3.9 5.3 59 3.8 NW 43 65 23 35 1005.5 1004.1 0.2
01/02:09pm 13.0 3.9 6.1 63 3.4 NNW 43 59 23 32 1005.5 1004.1 0.2
01/02:03pm 12.9 3.5 5.6 61 3.6 NW 44 70 24 38 1005.6 1004.2 0.2
01/02:00pm 13.5 4.5 6.4 62 3.5 NW 43 70 23 38 1005.5 1004.1 0.2
01/01:57pm 12.8 3.6 5.5 61 3.6 NNW 43 70 23 38 1005.5 1004.1 0.2
01/01:55pm 13.0 4.1 5.2 59 3.8 NW 41 70 22 38 1005.6 1004.2 0.2
01/01:51pm 12.7 3.9 5.4 61 3.5 NW 41 61 22 33 1005.7 1004.3 0.2
01/01:48pm 12.7 3.8 5.1 60 3.7 NW 41 59 22 32 1005.5 1004.1 0.2
01/01:32pm 12.8 4.7 5.2 60 3.7 NW 37 59 20 32 1005.6 1004.2 0.2
01/01:30pm 12.9 4.9 5.6 61 3.6 NW 37 54 20 29 1005.9 1004.5 0.2
01/01:00pm 12.3 5.2 5.5 63 3.3 NW 32 54 17 29 1005.9 1004.5 0.2
01/12:59pm 12.4 5.3 5.6 63 3.3 NNW 32 54 17 29 1005.8 1004.4 0.2
01/12:53pm 12.4 6.3 6.7 68 2.8 NW 28 43 15 23 1006.0 1004.6 0.2
01/12:30pm 12.2 3.0 5.6 64 3.2 NNW 43 65 23 35 1005.8 1004.4 0.2
01/12:23pm 12.7 3.7 6.3 65 3.2 NW 43 65 23 35 1006.0 1004.6 0.2
01/12:22pm 12.7 3.7 6.5 66 3.1 NW 43 65 23 35 1005.8 1004.4 0.2
01/12:19pm 13.1 4.0 5.8 61 3.6 NW 43 67 23 36 1005.8 1004.4 0.2
01/12:17pm 13.2 4.3 6.8 65 3.2 NW 43 67 23 36 1005.9 1004.5 0.2
01/12:00pm 12.7 4.0 6.1 64 3.3 NNW 41 61 22 33 1005.9 1004.5 0.2
01/11:56am 12.9 4.0 6.9 67 3.0 NW 43 61 23 33 1006.0 1004.6 0.2
01/11:55am 12.9 4.0 6.7 66 3.1 NW 43 61 23 33 1005.8 1004.4 0.2
01/11:31am 12.4 4.2 6.5 67 2.9 NW 39 57 21 31 1005.8 1004.4 0.2
01/11:30am 12.6 4.7 6.4 66 3.1 NW 37 50 20 27 1005.9 1004.5 0.2
01/11:04am 11.8 4.3 6.5 70 2.6 NNW 35 56 19 30 1006.0 1004.6 0.2
01/11:03am 11.8 4.4 6.9 72 2.4 NNW 35 56 19 30 1005.9 1004.5 0.2
01/11:00am 12.1 4.5 7.6 74 2.3 NNW 37 56 20 30 1006.1 1004.7 0.2
01/10:54am 11.6 3.0 6.3 70 2.6 NW 41 59 22 32 1005.9 1004.5 0.2
01/10:33am 11.2 4.3 6.3 72 2.4 WNW 32 54 17 29 1006.0 1004.6 0.2
01/10:30am 11.4 4.6 7.1 75 2.1 WNW 32 46 17 25 1006.1 1004.7 0.2
01/10:11am 11.0 4.7 7.3 78 1.8 WNW 30 48 16 26 1006.0 1004.6 0.2
01/10:09am 11.0 4.8 7.7 80 1.7 NW 30 43 16 23 1006.0 1004.6 0.2
01/10:00am 10.9 4.9 8.5 85 1.2 WNW 30 43 16 23 1006.0 1004.6 0.2
01/09:30am 9.9 2.5 6.6 80 1.6 WNW 35 50 19 27 1005.9 1005.3 0.0
01/09:27am 10.3 3.4 7.2 81 1.5 WNW 33 50 18 27 1005.9 1005.3 0.0
01/09:00am 10.6 4.5 6.4 75 2.1 WNW 28 41 15 22 1005.9 1005.3 2.0
01/08:30am 10.5 4.0 6.3 75 2.0 WNW 30 39 16 21 1005.5 1004.8 2.0
01/08:00am 10.3 4.1 6.3 76 1.9 NW 28 46 15 25 1005.4 1004.7 2.0
01/07:35am 10.0 3.8 6.0 76 1.9 WNW 28 52 15 28 1005.0 1004.4 2.0
01/07:30am 10.3 3.9 7.0 80 1.6 NW 30 43 16 23 1005.1 1004.5 2.0
01/07:00am 9.3 5.3 8.2 93 0.6 WNW 19 28 10 15 1004.6 1004.0 2.0
01/06:30am 8.6 4.0 8.2 97 0.2 WNW 22 35 12 19 1003.9 1003.2 2.0
01/06:00am 8.3 2.5 7.9 97 0.2 WNW 28 41 15 22 1003.1 1002.4 2.0
01/05:30am 8.5 2.2 7.3 92 0.6 NW 30 44 16 24 1002.4 1001.7 2.0
01/05:00am 8.4 1.2 7.8 96 0.3 NW 35 46 19 25 1001.6 1000.9 2.0
01/04:53am 8.4 1.3 8.0 97 0.2 NW 35 52 19 28 1001.5 1000.8 2.0
01/04:42am 8.3 1.2 8.2 99 0.0 NW 35 57 19 31 1001.3 1000.6 2.0
01/04:34am 8.4 0.6 8.1 98 0.1 NW 39 54 21 29 1001.1 1000.4 2.0
01/04:30am 8.6 0.4 8.0 96 0.3 NW 41 54 22 29 1001.1 1000.4 2.0
01/04:08am 8.6 1.4 7.5 93 0.5 NW 35 56 19 30 1000.6 999.8 2.0
01/04:00am 8.6 1.7 7.2 91 0.7 NW 33 46 18 25 1000.4 999.7 2.0
01/03:37am 8.5 1.6 7.1 91 0.7 WNW 33 52 18 28 1000.1 999.4 2.0
01/03:30am 8.6 1.3 7.2 91 0.7 WNW 35 52 19 28 1000.0 999.3 2.0
01/03:00am 8.3 1.4 7.2 93 0.5 WNW 33 52 18 28 999.6 998.9 2.0
01/02:32am 7.7 1.0 7.3 97 0.2 WNW 32 50 17 27 999.9 999.2 2.0
01/02:30am 7.6 0.9 7.2 97 0.2 WNW 32 46 17 25 999.9 999.2 2.0
01/02:00am 7.2 1.2 7.2 100 0.0 WNW 28 43 15 23 1000.0 999.3 2.0
01/01:30am 6.1 - - - - WNW 19 28 10 15 1000.6 999.8 2.0
01/01:00am 5.9 1.4 5.9 100 0.0 W 19 28 10 15 1000.8 1000.1 2.0
01/12:30am 6.0 1.3 6.0 100 0.0 WNW 20 30 11 16 1001.1 1000.4 2.0
01/12:00am 5.8 1.2 5.8 100 0.0 WNW 19 30 10 16 1001.1 1000.4 2.0
 
Date/Time
EST
Temp
°C
App
Temp
°C
Dew
Point
°C
Rel
Hum
%
Delta-T
°C
Wind Press
QNH
hPa
Press
MSL
hPa
Rain since
9am
mm
Dir  Spd
km/h
Gust
km/h
Spd
kts
Gust
kts
30/11:30pm 5.7 0.9 5.6 99 0.0 WNW 20 28 11 15 1001.4 1000.7 2.0
30/11:00pm 6.0 0.4 5.6 97 0.2 WNW 24 35 13 19 1001.6 1000.9 2.0
30/10:52pm 6.2 -0.1 5.8 97 0.2 WNW 28 39 15 21 1001.8 1001.1 2.0
30/10:32pm 6.3 -0.3 5.9 97 0.2 WNW 30 48 16 26 1002.3 1001.6 1.6
30/10:30pm 6.3 -0.7 5.9 97 0.2 WNW 32 48 17 26 1002.3 1001.6 1.4
30/10:24pm 6.4 0.2 6.0 97 0.2 WNW 28 48 15 26 1002.3 1001.6 1.0
30/10:22pm 6.3 -0.3 5.9 97 0.2 WNW 30 48 16 26 1002.3 1001.6 0.8
30/10:00pm 6.6 0.1 4.8 88 0.8 NW 28 39 15 21 1002.0 1001.4 0.2
30/09:30pm 7.4 -0.3 3.5 76 1.7 NW 33 54 18 29 1001.5 1000.8 0.0
30/09:14pm 7.6 0.1 3.6 76 1.8 NW 32 50 17 27 1001.3 1000.6 0.0
30/09:00pm 7.7 0.1 3.7 76 1.8 WNW 33 48 18 26 1001.2 1000.5 0.0
30/08:51pm 7.7 -0.7 3.6 75 1.8 NW 37 56 20 30 1001.1 1000.4 0.0
30/08:49pm 7.7 -1.1 3.7 76 1.8 NW 39 56 21 30 1001.1 1000.4 0.0
30/08:30pm 7.3 -0.8 3.5 77 1.7 WNW 35 52 19 28 1000.9 1000.2 0.0
30/08:15pm 7.3 -0.4 3.5 77 1.7 WNW 33 52 18 28 1000.6 999.8 0.0
30/08:00pm 7.3 -0.8 3.5 77 1.7 WNW 35 52 19 28 1000.4 999.7 0.0
30/07:30pm 7.1 0.0 3.7 79 1.5 WNW 30 43 16 23 1000.3 999.6 0.0
30/07:00pm 7.3 -0.4 3.2 75 1.8 WNW 33 52 18 28 999.9 999.2 0.0
30/06:35pm 7.6 0.5 3.3 74 1.9 WNW 30 48 16 26 999.9 999.2 0.0
30/06:30pm 7.7 1.0 3.6 75 1.8 WNW 28 39 15 21 999.9 999.2 0.0
30/06:00pm 8.2 1.1 3.7 73 2.0 NW 30 50 16 27 999.5 998.8 0.0
30/05:44pm 8.5 1.0 3.6 71 2.2 WNW 32 50 17 27 999.3 998.5 0.0
30/05:30pm 8.6 0.5 3.4 70 2.3 WNW 35 50 19 27 999.2 998.4 0.0
30/05:00pm 9.0 1.3 3.4 68 2.5 WNW 33 56 18 30 998.4 997.7 0.0
30/04:30pm 9.8 2.3 3.3 64 2.9 WNW 32 52 17 28 997.8 997.0 0.0
30/04:02pm 10.5 2.9 4.0 64 3.0 WNW 33 52 18 28 997.2 996.5 0.0
30/04:00pm 10.3 2.3 3.6 63 3.1 WNW 35 52 19 28 997.2 996.5 0.0
30/03:51pm 10.2 2.5 3.3 62 3.1 WNW 33 52 18 28 997.1 996.4 0.0
30/03:30pm 10.6 2.5 3.2 60 3.4 WNW 35 48 19 26 996.8 996.0 0.0
30/03:14pm 10.5 2.9 2.8 59 3.5 WNW 32 57 17 31 996.7 995.9 0.0
30/03:00pm 10.4 2.7 3.2 61 3.3 WNW 33 48 18 26 996.7 995.9 0.0
30/02:35pm 10.7 2.2 3.3 60 3.4 WNW 37 56 20 30 996.6 995.8 0.0
30/02:30pm 10.7 2.3 3.5 61 3.3 WNW 37 50 20 27 996.6 995.8 0.0
30/02:29pm 10.8 2.5 4.3 64 3.0 WNW 37 48 20 26 996.6 995.8 0.0
30/02:01pm 10.5 3.4 5.7 72 2.3 NNW 32 50 17 27 996.9 996.2 0.0
30/02:00pm 10.7 3.7 6.8 77 1.9 NNW 33 50 18 27 996.9 996.2 0.0
30/01:33pm 10.5 3.0 4.2 65 2.9 NW 33 57 18 31 996.8 996.0 0.0
30/01:30pm 10.4 3.4 5.8 73 2.2 NW 32 44 17 24 996.9 996.2 0.0
30/01:17pm 9.7 2.7 5.9 77 1.8 NW 32 50 17 27 996.9 996.2 0.0
30/01:01pm 9.3 2.8 6.4 82 1.4 NNW 30 44 16 24 997.2 996.5 0.0
30/01:00pm 9.3 2.5 6.7 84 1.3 NNW 32 44 17 24 997.2 996.5 0.0
30/12:49pm 8.8 2.0 6.8 87 1.0 NW 32 43 17 23 997.5 996.7 0.0
30/12:34pm 9.4 2.8 6.1 80 1.6 NW 30 48 16 26 997.3 996.6 0.0
30/12:30pm 9.0 1.9 5.6 79 1.6 NW 32 48 17 26 997.3 996.6 0.0
30/12:00pm 8.4 1.3 5.7 83 1.3 NNW 32 46 17 25 997.6 996.8 0.0
30/11:30am 7.9 1.5 5.4 84 1.2 NNW 28 35 15 19 997.7 996.9 0.0
30/11:00am 7.8 1.3 4.6 80 1.5 NNW 28 39 15 21 997.5 996.7 0.0
30/10:30am 8.8 1.5 4.6 75 1.9 NNW 32 44 17 24 997.3 996.6 0.0
30/10:25am 8.6 1.1 3.6 71 2.2 NW 32 46 17 25 997.2 996.5 0.0
30/10:00am 9.4 2.3 3.4 66 2.7 NW 30 41 16 22 997.2 996.5 0.0
30/09:38am 9.4 1.9 3.4 66 2.7 WNW 32 50 17 27 997.1 996.4 0.0
30/09:30am 9.2 1.6 3.0 65 2.8 NW 32 46 17 25 997.2 996.5 0.0
30/09:00am 9.0 1.5 3.6 69 2.5 NNW 32 46 17 25 997.3 996.6 2.6
30/08:30am 9.0 2.1 2.3 63 2.9 NW 28 41 15 22 997.5 996.7 2.6
30/08:21am 8.9 2.0 2.3 63 2.9 NW 28 46 15 25 997.5 996.7 2.6
30/08:00am 8.9 1.6 2.3 63 2.9 NW 30 43 16 23 997.2 996.5 2.6
30/07:30am 8.2 2.4 2.2 66 2.6 NNW 22 32 12 17 997.1 996.4 2.6
30/07:00am 8.2 1.9 1.8 64 2.8 NW 24 39 13 21 996.9 996.2 2.6
30/06:30am 7.9 2.0 1.7 65 2.7 NW 22 32 12 17 996.8 996.0 2.6
30/06:00am 7.4 1.5 1.5 66 2.5 NW 22 35 12 19 996.5 995.7 2.6
30/05:30am 7.5 1.1 1.1 64 2.7 NW 24 35 13 19 996.1 995.3 2.6
30/05:00am 7.1 0.4 1.2 66 2.5 NNW 26 35 14 19 995.7 995.0 2.6
30/04:30am 7.1 0.7 1.2 66 2.5 NNW 24 33 13 18 995.6 994.9 2.6
30/04:00am 7.3 0.9 1.0 64 2.7 NNW 24 35 13 19 995.9 995.1 2.6
30/03:30am 7.6 0.4 0.8 62 2.8 NW 28 39 15 21 995.9 995.1 2.6
30/03:00am 7.8 0.3 1.0 62 2.9 NW 30 43 16 23 996.4 995.6 2.6
30/02:30am 7.7 0.1 0.7 61 2.9 NW 30 39 16 21 996.4 995.6 2.6
30/02:00am 7.9 0.7 0.4 59 3.1 NW 28 37 15 20 996.8 996.0 2.6
30/01:30am 8.4 0.4 0.4 57 3.3 NW 32 44 17 24 997.0 996.3 2.6
30/01:00am 8.4 1.1 0.1 56 3.5 WNW 28 44 15 24 997.3 996.6 2.6
30/12:38am 8.5 0.8 0.0 55 3.5 WNW 30 48 16 26 997.6 996.8 2.6
30/12:30am 8.6 0.9 -0.2 54 3.6 WNW 30 46 16 25 997.8 997.0 2.6
30/12:00am 8.7 1.4 0.2 55 3.6 WNW 28 41 15 22 998.0 997.2 2.6
 
Date/Time
EST
Temp
°C
App
Temp
°C
Dew
Point
°C
Rel
Hum
%
Delta-T
°C
Wind Press
QNH
hPa
Press
MSL
hPa
Rain since
9am
mm
Dir  Spd
km/h
Gust
km/h
Spd
kts
Gust
kts
29/11:38pm 8.9 1.6 0.1 54 3.7 WNW 28 48 15 26 998.0 997.2 2.6
29/11:30pm 8.6 1.4 0.6 57 3.4 WNW 28 43 15 23 998.2 997.5 2.6
29/11:01pm 8.9 1.3 0.6 56 3.5 WNW 30 48 16 26 997.9 997.1 2.6
29/11:00pm 8.8 1.2 0.8 57 3.4 WNW 30 43 16 23 997.9 997.1 2.6
29/10:30pm 8.9 1.4 1.1 58 3.3 WNW 30 46 16 25 997.5 996.7 2.6
29/10:00pm 9.0 1.1 1.0 57 3.4 WNW 32 50 17 27 997.2 996.5 2.6
29/09:54pm 9.2 1.3 0.9 56 3.5 WNW 32 50 17 27 997.1 996.4 2.6
29/09:30pm 9.2 1.6 0.6 55 3.6 WNW 30 41 16 22 997.0 996.3 2.6
29/09:17pm 9.4 1.8 0.8 55 3.7 WNW 30 50 16 27 996.9 996.2 2.6
29/09:00pm 9.4 3.1 1.6 58 3.4 NW 24 39 13 21 997.1 996.4 2.6
29/08:30pm 8.5 3.6 2.1 64 2.8 WNW 17 32 9 17 997.0 996.3 2.6
29/08:00pm 8.1 2.6 2.1 66 2.6 WNW 20 28 11 15 997.0 996.3 2.6
29/07:30pm 8.6 2.7 1.7 62 3.0 WNW 22 32 12 17 996.9 996.2 2.6
29/07:00pm 9.6 2.1 1.5 57 3.5 WNW 30 44 16 24 996.9 996.2 2.6
29/06:57pm 9.8 2.7 1.5 56 3.6 WNW 28 44 15 24 996.8 996.0 2.6
29/06:30pm 10.3 5.0 1.7 55 3.8 WNW 19 24 10 13 996.4 995.6 2.6
29/06:00pm 10.8 5.9 1.9 54 4.0 WNW 17 24 9 13 996.4 995.6 2.6
29/05:30pm 11.8 7.5 3.1 55 4.0 WNW 15 24 8 13 996.1 995.3 2.6
29/05:00pm 12.2 6.8 2.4 51 4.5 WNW 20 35 11 19 995.6 994.9 2.6
29/04:30pm 11.6 4.8 2.9 55 4.0 NW 28 41 15 22 995.5 994.7 2.6
29/04:00pm 11.6 2.4 3.6 58 3.7 WNW 41 67 22 36 995.3 994.5 2.6
29/03:54pm 11.8 2.6 3.3 56 3.9 NNW 41 65 22 35 995.1 994.3 2.6
29/03:48pm 12.4 4.7 3.6 55 4.1 NNW 33 56 18 30 994.9 994.1 2.6
29/03:30pm 14.3 7.8 4.9 53 4.6 WNW 28 43 15 23 994.7 993.9 2.6
29/03:00pm 15.1 7.9 3.0 44 5.7 WNW 30 48 16 26 994.5 993.7 2.6
29/02:57pm 14.9 7.9 2.1 42 5.9 WNW 28 48 15 26 994.4 993.6 2.6
29/02:30pm 15.0 10.1 8.3 64 3.5 WNW 24 35 13 19 994.4 993.6 2.6
29/02:00pm 13.9 8.9 9.7 76 2.3 NNW 26 33 14 18 994.5 993.7 2.6
29/01:31pm 13.5 10.4 13.3 99 0.1 NNE 22 32 12 17 995.2 994.4 2.6
29/01:30pm 13.2 10.0 13.0 99 0.1 NNE 22 32 12 17 995.3 994.5 2.6
29/01:25pm 12.4 8.6 12.4 100 0.0 NNE 24 33 13 18 995.6 994.9 2.6
29/01:01pm 10.6 6.3 10.6 100 0.0 NW 24 32 13 17 997.1 996.4 2.0
29/01:00pm 10.6 6.3 10.6 100 0.0 NW 24 32 13 17 997.1 996.4 1.8
29/12:30pm 12.2 6.9 11.1 93 0.6 N 30 39 16 21 995.6 994.9 1.2
29/12:00pm 11.8 5.7 11.8 100 0.0 NNE 35 43 19 23 996.0 995.2 1.2
29/11:47am 11.1 - - - - NNE 28 39 15 21 996.0 995.2 1.2
29/11:30am 11.2 - - - - NNE 35 44 19 24 996.5 995.7 1.2
29/11:23am 10.1 3.5 10.1 100 0.0 NNE 35 54 19 29 997.0 996.3 1.2
29/11:00am 9.4 1.9 9.4 100 0.0 NNE 39 52 21 28 997.0 996.3 1.2
29/10:51am 9.5 2.0 9.5 100 0.0 NNE 39 52 21 28 997.2 996.5 1.0
29/10:35am 9.5 1.2 9.5 100 0.0 NNE 43 54 23 29 997.5 996.7 1.0
29/10:30am 9.3 1.0 9.3 100 0.0 NNE 43 56 23 30 997.6 996.8 1.0
29/10:18am 9.8 1.6 9.8 100 0.0 NNE 43 54 23 29 997.9 997.1 1.0
29/10:05am 9.3 - - - - NNE 46 57 25 31 997.9 997.1 1.0
29/10:04am 9.3 - - - - NNE 46 59 25 32 997.9 997.1 1.0
29/10:00am 9.2 0.3 9.2 100 0.0 NNE 46 59 25 32 998.0 997.2 1.0
29/09:30am 9.1 - - - - NNE 44 57 24 31 998.7 998.0 0.8
29/09:00am 8.8 0.4 8.8 100 0.0 NNE 43 56 23 30 999.4 998.6 4.4
29/08:30am 8.9 - - - - NNE 39 54 21 29 999.6 998.9 3.2
29/08:17am 8.9 0.5 8.9 100 0.0 NNE 43 54 23 29 999.8 999.1 2.6
29/08:05am 9.0 1.4 9.0 100 0.0 NNE 39 50 21 27 1000.0 999.3 2.4
29/08:00am 9.0 1.4 9.0 100 0.0 NNE 39 50 21 27 1000.0 999.3 2.4
29/07:37am 9.0 2.7 9.0 100 0.0 NNE 32 46 17 25 1000.2 999.5 2.0
29/07:30am 9.0 2.7 9.0 100 0.0 NNE 32 43 17 23 1000.4 999.7 1.8
29/07:19am 8.9 - - - - NNE 28 39 15 21 1000.7 999.9 1.8
29/07:00am 8.8 - - - - NNE 26 37 14 20 1001.1 1000.4 1.4
29/06:40am 8.8 - - - - NNE 24 32 13 17 1001.3 1000.6 0.6
29/06:30am 8.8 - - - - NE 24 32 13 17 1001.3 1000.6 0.6
29/06:29am 8.7 - - - - NE 24 32 13 17 1001.3 1000.6 0.6
29/06:04am 8.8 - - - - NNE 24 33 13 18 1002.0 1001.4 0.2
29/06:00am 8.8 - - - - NNE 26 33 14 18 1002.2 1001.5 0.2
29/05:46am 8.8 - - - - NNE 28 32 15 17 1002.4 1001.7 0.0
29/05:30am 8.8 - - - - NNE 30 39 16 21 1002.4 1001.7 0.0
29/05:00am 8.9 3.3 8.9 100 0.0 N 28 39 15 21 1003.1 1002.4 0.0
29/04:30am 9.0 1.4 9.0 100 0.0 NNE 39 48 21 26 1002.5 1001.8 0.0
29/04:00am 9.1 2.3 9.1 100 0.0 NNE 35 46 19 25 1002.9 1002.2 0.0
29/03:30am 9.4 1.9 9.3 99 0.1 NNE 39 52 21 28 1003.2 1002.6 0.0
29/03:00am 9.3 2.8 9.0 98 0.2 NNE 33 46 18 25 1004.2 1003.5 0.0
29/02:30am 9.5 3.0 9.0 97 0.3 NNE 33 48 18 26 1004.6 1004.0 0.0
29/02:06am 9.3 1.0 7.6 89 0.8 NNE 41 59 22 32 1005.1 1004.5 0.0
29/02:00am 9.5 0.8 8.4 93 0.6 NNE 44 59 24 32 1005.0 1004.4 0.0
29/01:48am 9.6 1.6 7.5 87 1.0 NNE 39 57 21 31 1005.5 1004.8 0.0
29/01:41am 9.3 1.6 7.3 87 1.0 NNE 37 48 20 26 1006.0 1005.4 0.0
29/01:30am 9.5 1.9 7.4 87 1.0 NNE 37 52 20 28 1006.2 1005.6 0.0
29/01:18am 9.3 0.8 6.9 85 1.2 NNE 41 56 22 30 1005.9 1005.3 0.0
29/01:02am 9.5 2.1 6.8 83 1.3 NNE 35 56 19 30 1006.6 1006.0 0.0
29/01:00am 9.6 2.2 6.9 83 1.3 NNE 35 48 19 26 1006.6 1006.0 0.0
29/12:58am 9.5 2.1 6.8 83 1.3 NNE 35 50 19 27 1007.0 1006.3 0.0
29/12:49am 9.5 3.0 6.6 82 1.4 NNE 30 50 16 27 1007.3 1006.7 0.0
29/12:30am 8.6 3.4 5.7 82 1.4 NNE 22 30 12 16 1007.9 1007.3 0.0
29/12:00am 8.6 3.6 4.8 77 1.8 NNE 20 32 11 17 1008.0 1007.4 0.0
 
Date/Time
EST
Temp
°C
App
Temp
°C
Dew
Point
°C
Rel
Hum
%
Delta-T
°C
Wind Press
QNH
hPa
Press
MSL
hPa
Rain since
9am
mm
Dir  Spd
km/h
Gust
km/h
Spd
kts
Gust
kts
28/11:30pm 8.8 3.0 4.6 75 1.9 NNE 24 30 13 16 1008.5 1007.9 0.0
28/11:00pm 8.5 3.1 4.5 76 1.8 NNE 22 32 12 17 1009.1 1008.5 0.0
28/10:30pm 8.4 3.6 4.4 76 1.8 NNE 19 28 10 15 1009.4 1008.8 0.0
28/10:00pm 8.4 4.3 4.4 76 1.8 N 15 19 8 10 1010.0 1009.4 0.0
28/09:30pm 8.1 4.0 4.3 77 1.7 NNE 15 22 8 12 1010.1 1009.5 0.0
28/09:00pm 8.4 4.0 4.8 78 1.7 NNE 17 24 9 13 1010.4 1009.8 0.0
28/08:30pm 8.7 3.9 4.9 77 1.8 NNE 19 26 10 14 1010.5 1009.9 0.0
28/08:00pm 8.8 3.6 5.4 79 1.6 NNE 22 28 12 15 1010.6 1010.0 0.0
28/07:30pm 8.7 4.1 5.8 82 1.4 NNE 19 24 10 13 1010.6 1010.0 0.0
28/07:00pm 9.4 4.3 5.8 78 1.7 NE 22 33 12 18 1010.3 1009.7 0.0
28/06:30pm 9.3 4.6 5.9 79 1.6 ENE 20 26 11 14 1010.1 1009.5 0.0
28/06:00pm 9.9 5.3 6.3 78 1.7 ENE 20 28 11 15 1010.2 1009.6 0.0
28/05:30pm 10.9 5.5 6.3 73 2.2 ENE 24 33 13 18 1010.2 1009.6 0.0
28/05:00pm 11.5 5.7 6.2 70 2.6 ENE 26 33 14 18 1010.3 1009.7 0.0
28/04:30pm 12.6 7.0 7.1 69 2.8 ENE 26 33 14 18 1010.1 1009.5 0.0
28/04:00pm 13.2 7.4 6.3 63 3.4 ENE 26 32 14 17 1010.2 1009.6 0.0
28/03:30pm 13.9 8.5 6.3 60 3.8 ENE 24 35 13 19 1010.5 1009.9 0.0
28/03:00pm 14.1 9.3 5.7 57 4.1 NE 20 28 11 15 1010.6 1010.0 0.0

Other Formats:

Comma delimited format used in spreadsheet applications
http://www.bom.gov.au/fwo/IDN60801/IDN60801.94746.axf

JavaScript Object Notation format (JSON) in row-major order
http://www.bom.gov.au/fwo/IDN60801/IDN60801.94746.json